Time;durP1;ratioP1;P1;durP2;ratioP2;P2;SDS_P1;SDS_P2;PMS_P1;PMS_P2;Temp;Humidity;BMP_temperature;BMP_pressure;BME280_temperature;BME280_humidity;BME280_pressure;Samples;Min_cycle;Max_cycle;Signal;HPM_P1;HPM_P2
2022/08/19 00:00:24;;;;;;;9.43;7.38;;;15.40;99.90;;;;;;4939910;28;88560;-33
2022/08/19 00:02:51;;;;;;;8.82;7.82;;;15.50;99.90;;;;;;4940544;28;90366;-31
2022/08/19 00:05:17;;;;;;;9.00;7.40;;;15.40;99.90;;;;;;4939241;28;90746;-31
2022/08/19 00:07:43;;;;;;;10.77;7.97;;;15.40;99.90;;;;;;4940145;28;90618;-31
2022/08/19 00:10:11;;;;;;;10.85;8.38;;;15.40;99.90;;;;;;4938483;28;88687;-33
2022/08/19 00:12:37;;;;;;;9.43;8.38;;;15.40;99.90;;;;;;4939450;28;90890;-31
2022/08/19 00:15:11;;;;;;;8.20;6.70;;;15.40;99.90;;;;;;4940005;28;89948;-32
2022/08/19 00:17:38;;;;;;;10.18;9.18;;;15.30;99.90;;;;;;4939453;28;90045;-33
2022/08/19 00:20:05;;;;;;;11.95;9.43;;;15.30;99.90;;;;;;4939636;28;88694;-31
2022/08/19 00:22:31;;;;;;;11.07;9.38;;;15.30;99.90;;;;;;4939446;28;90711;-33
2022/08/19 00:24:56;;;;;;;11.48;9.77;;;15.30;99.90;;;;;;4976357;23;89083;-31
2022/08/19 00:27:22;;;;;;;12.18;9.90;;;15.20;99.90;;;;;;4938484;28;89473;-30
2022/08/19 00:29:48;;;;;;;12.38;10.55;;;15.20;99.90;;;;;;4939201;28;89427;-31
2022/08/19 00:32:13;;;;;;;13.30;9.60;;;15.30;99.90;;;;;;4937995;28;90264;-31
2022/08/19 00:34:39;;;;;;;11.48;9.70;;;15.30;99.90;;;;;;4939645;28;89855;-32
2022/08/19 00:37:05;;;;;;;12.23;10.43;;;15.30;99.90;;;;;;4939468;28;89809;-31
2022/08/19 00:39:30;;;;;;;10.73;9.70;;;15.30;99.90;;;;;;4938884;28;87900;-30
2022/08/19 00:41:57;;;;;;;11.38;10.18;;;15.30;99.90;;;;;;4940223;28;90191;-31
2022/08/19 00:44:26;;;;;;;12.80;11.48;;;15.20;99.90;;;;;;4931242;28;89945;-31
2022/08/19 00:46:53;;;;;;;19.20;9.55;;;15.20;99.90;;;;;;4933336;28;89696;-32
2022/08/19 00:49:26;;;;;;;5.78;5.25;;;15.20;99.90;;;;;;4939753;28;89923;-31
2022/08/19 00:52:14;;;;;;;7.60;6.32;;;15.20;99.90;;;;;;4939013;28;90401;-32
2022/08/19 00:54:41;;;;;;;6.28;5.53;;;15.10;99.90;;;;;;4927086;28;89627;-33
2022/08/19 00:57:14;;;;;;;9.35;6.57;;;15.00;99.90;;;;;;4939315;28;91424;-30
2022/08/19 00:59:41;;;;;;;8.52;6.78;;;15.00;99.90;;;;;;4939449;28;88640;-32
2022/08/19 01:02:07;;;;;;;14.55;10.85;;;14.90;99.90;;;;;;4939426;28;93313;-30
2022/08/19 01:04:33;;;;;;;10.50;9.43;;;14.90;99.90;;;;;;4940286;28;89864;-30
2022/08/19 01:06:59;;;;;;;10.68;8.75;;;14.90;99.90;;;;;;4942343;28;89165;-31
2022/08/19 01:09:24;;;;;;;13.95;11.63;;;15.00;99.90;;;;;;4942286;28;89330;-30
2022/08/19 01:11:50;;;;;;;15.63;11.75;;;15.00;99.90;;;;;;4941422;28;90267;-30
2022/08/19 01:14:17;;;;;;;13.05;11.77;;;15.00;99.90;;;;;;4941360;28;89563;-31
2022/08/19 01:16:43;;;;;;;15.30;12.20;;;15.10;99.90;;;;;;4941770;28;90676;-32
2022/08/19 01:19:23;;;;;;;14.40;11.13;;;15.10;99.90;;;;;;4940562;28;90528;-31
2022/08/19 01:21:57;;;;;;;13.70;11.27;;;15.10;99.90;;;;;;4929258;28;90398;-31
2022/08/19 01:24:23;;;;;;;15.90;11.32;;;15.10;99.90;;;;;;4941063;28;89751;-30
2022/08/19 01:26:48;;;;;;;14.40;11.82;;;15.10;99.90;;;;;;4941276;28;90050;-31
2022/08/19 01:29:14;;;;;;;12.40;11.20;;;15.10;99.90;;;;;;4941419;28;90149;-30
2022/08/19 01:31:40;;;;;;;16.75;12.52;;;15.20;99.90;;;;;;4940964;28;89398;-32
2022/08/19 01:34:06;;;;;;;14.73;12.10;;;15.20;99.90;;;;;;4940445;28;89578;-34
2022/08/19 01:36:38;;;;;;;14.63;12.77;;;15.20;99.90;;;;;;4941176;28;88468;-32
2022/08/19 01:39:08;;;;;;;13.88;12.15;;;15.20;99.90;;;;;;4941647;28;89694;-32
2022/08/19 01:41:35;;;;;;;14.30;12.77;;;15.20;99.90;;;;;;4941334;28;89783;-31
2022/08/19 01:44:03;;;;;;;14.65;9.57;;;15.20;99.90;;;;;;4936813;28;90834;-32
2022/08/19 01:46:30;;;;;;;10.98;9.82;;;15.20;99.90;;;;;;4932712;28;91519;-30
2022/08/19 01:48:56;;;;;;;12.10;9.60;;;15.20;99.90;;;;;;4941577;28;88148;-33
2022/08/19 01:51:22;;;;;;;10.80;9.10;;;15.10;99.90;;;;;;4941968;28;90518;-30
2022/08/19 01:53:49;;;;;;;10.45;9.35;;;15.10;99.90;;;;;;4942041;28;89945;-31
2022/08/19 01:56:15;;;;;;;11.70;10.48;;;15.10;99.90;;;;;;4940926;28;90497;-30
2022/08/19 01:58:52;;;;;;;8.05;7.28;;;15.00;99.90;;;;;;4941157;28;87669;-31
2022/08/19 02:01:19;;;;;;;10.77;7.45;;;15.00;99.90;;;;;;4928982;28;90443;-29
2022/08/19 02:03:45;;;;;;;6.28;5.53;;;14.90;99.90;;;;;;4941230;28;89872;-32
2022/08/19 02:06:11;;;;;;;5.22;4.82;;;14.90;99.90;;;;;;4941460;28;89671;-31
2022/08/19 02:08:38;;;;;;;5.78;4.70;;;14.80;99.90;;;;;;4941897;28;89601;-31
2022/08/19 02:11:06;;;;;;;7.72;5.90;;;14.70;99.90;;;;;;4941920;28;90455;-30
2022/08/19 02:13:33;;;;;;;12.18;9.65;;;14.60;99.90;;;;;;4941207;28;90427;-30
2022/08/19 02:15:59;;;;;;;6.32;5.35;;;14.60;99.90;;;;;;4940135;28;90578;-31
2022/08/19 02:18:26;;;;;;;4.68;4.22;;;14.60;99.90;;;;;;4941020;28;88306;-32
2022/08/19 02:20:52;;;;;;;7.82;7.13;;;14.50;99.90;;;;;;4940690;28;90322;-30
2022/08/19 02:23:17;;;;;;;8.43;7.35;;;14.50;99.90;;;;;;4941270;28;89974;-31
2022/08/19 02:25:45;;;;;;;10.15;7.93;;;14.50;99.90;;;;;;4941191;28;89992;-30
2022/08/19 02:28:11;;;;;;;11.25;10.10;;;14.50;99.90;;;;;;4940621;28;88362;-32
2022/08/19 02:30:38;;;;;;;11.13;10.00;;;14.50;99.90;;;;;;4940621;28;90703;-30
2022/08/19 02:33:04;;;;;;;15.50;12.57;;;14.50;99.90;;;;;;4939356;28;92246;-30
2022/08/19 02:35:30;;;;;;;16.15;13.07;;;14.50;99.90;;;;;;4940231;28;90730;-33
2022/08/19 02:40:40;;;;;;;16.30;12.45;;;14.60;99.90;;;;;;4920258;28;90150;-33
2022/08/19 02:43:08;;;;;;;18.00;13.48;;;14.60;99.90;;;;;;4924525;28;90107;-31
2022/08/19 02:45:35;;;;;;;13.80;11.87;;;14.60;99.90;;;;;;4939100;28;90542;-30
2022/08/19 02:48:01;;;;;;;17.08;14.93;;;14.60;99.90;;;;;;4926429;28;89210;-32
2022/08/19 02:50:27;;;;;;;16.23;12.73;;;14.70;99.90;;;;;;4940481;28;88955;-34
2022/08/19 02:52:53;;;;;;;13.65;11.55;;;14.80;99.90;;;;;;4940056;28;89687;-30
2022/08/19 02:55:18;;;;;;;15.43;12.43;;;14.80;99.90;;;;;;4931851;28;88608;-29
2022/08/19 02:57:44;;;;;;;13.73;10.05;;;14.70;99.90;;;;;;4933830;28;89455;-30
2022/08/19 03:00:12;;;;;;;11.60;9.48;;;14.70;99.90;;;;;;4939985;28;90599;-31
2022/08/19 03:02:38;;;;;;;12.40;8.38;;;14.80;99.90;;;;;;4940319;28;90194;-30
2022/08/19 03:05:05;;;;;;;16.08;10.93;;;14.70;99.90;;;;;;4940853;28;89520;-33
2022/08/19 03:07:30;;;;;;;22.85;12.88;;;14.70;99.90;;;;;;4939647;28;88643;-32
2022/08/19 03:09:56;;;;;;;16.48;11.60;;;14.70;99.90;;;;;;4940084;28;89036;-34
2022/08/19 03:12:22;;;;;;;12.93;11.02;;;14.70;99.90;;;;;;4932866;28;89484;-28
2022/08/19 03:14:47;;;;;;;17.27;13.32;;;14.70;99.90;;;;;;4933367;28;89728;-30
2022/08/19 03:17:13;;;;;;;15.48;12.98;;;14.70;99.90;;;;;;4939844;28;90302;-32
2022/08/19 03:19:38;;;;;;;16.13;14.10;;;14.70;99.90;;;;;;4939773;28;90339;-29
2022/08/19 03:22:04;;;;;;;22.05;16.80;;;14.70;99.90;;;;;;4939358;28;90457;-34
2022/08/19 03:24:30;;;;;;;17.00;12.60;;;14.70;99.90;;;;;;4939173;28;90423;-32
2022/08/19 03:26:59;;;;;;;23.45;15.75;;;14.70;99.90;;;;;;4938974;28;88712;-32
2022/08/19 03:29:26;;;;;;;;;;;14.70;99.90;;;;;;4939499;28;90086;-31
2022/08/19 03:31:51;;;;;;;28.77;14.00;;;14.70;99.90;;;;;;4941849;28;89751;-31
2022/08/19 03:34:21;;;;;;;21.48;15.50;;;14.60;99.90;;;;;;4939038;28;89349;-32
2022/08/19 03:36:47;;;;;;;18.73;13.50;;;14.70;99.90;;;;;;4939393;28;88650;-30
2022/08/19 03:39:13;;;;;;;17.60;14.45;;;14.70;99.90;;;;;;4939162;28;89771;-35
2022/08/19 03:41:42;;;;;;;16.35;13.38;;;14.70;99.90;;;;;;4939199;28;90185;-30
2022/08/19 03:44:08;;;;;;;19.55;14.88;;;14.70;99.90;;;;;;4939850;28;89766;-31
2022/08/19 03:46:35;;;;;;;8.23;6.18;;;14.70;99.90;;;;;;4930808;28;89781;-34
2022/08/19 03:49:06;;;;;;;6.53;4.13;;;14.60;99.90;;;;;;4934626;28;90598;-31
2022/08/19 03:51:34;;;;;;;5.22;4.70;;;14.40;99.90;;;;;;4939522;28;89846;-34
2022/08/19 03:54:04;;;;;;;4.57;4.18;;;14.20;99.90;;;;;;4939961;28;89768;-33
2022/08/19 03:56:30;;;;;;;6.45;5.22;;;14.00;99.90;;;;;;4939573;28;89565;-29
2022/08/19 03:58:57;;;;;;;11.02;6.78;;;13.90;99.90;;;;;;4940445;28;91497;-31
2022/08/19 04:01:28;;;;;;;13.83;12.30;;;13.90;99.90;;;;;;4939204;28;89966;-29
2022/08/19 04:03:56;;;;;;;13.23;10.52;;;14.00;99.90;;;;;;4939514;28;90129;-30
2022/08/19 04:06:29;;;;;;;6.43;5.82;;;14.00;99.90;;;;;;4938838;28;87931;-31
2022/08/19 04:08:58;;;;;;;4.82;4.22;;;13.90;99.90;;;;;;4939871;28;92158;-30
2022/08/19 04:11:30;;;;;;;15.20;11.55;;;13.80;99.90;;;;;;4938386;28;90756;-31
2022/08/19 04:13:56;;;;;;;22.13;14.88;;;13.80;99.90;;;;;;4939620;28;90518;-30
2022/08/19 04:16:24;;;;;;;22.88;14.85;;;13.90;99.90;;;;;;4938672;28;89061;-33
2022/08/19 04:18:49;;;;;;;19.33;14.85;;;14.10;99.90;;;;;;4938804;28;90570;-31
2022/08/19 04:21:19;;;;;;;20.80;14.32;;;14.20;99.90;;;;;;4939044;28;89622;-33
2022/08/19 04:23:45;;;;;;;21.08;16.48;;;14.30;99.90;;;;;;4938988;28;89529;-32
2022/08/19 04:26:20;;;;;;;24.20;16.30;;;14.30;99.90;;;;;;4937983;28;87814;-32
2022/08/19 04:28:46;;;;;;;16.88;13.35;;;14.40;99.90;;;;;;4939278;28;90040;-32
2022/08/19 04:31:17;;;;;;;18.70;13.88;;;14.40;99.90;;;;;;4938935;28;90209;-35
2022/08/19 04:33:43;;;;;;;19.75;16.38;;;14.50;99.90;;;;;;4938488;28;90140;-30
2022/08/19 04:36:19;;;;;;;8.95;5.95;;;14.50;99.90;;;;;;4937745;28;90628;-29
2022/08/19 04:38:44;;;;;;;15.23;12.25;;;14.40;99.90;;;;;;4940679;28;89273;-34
2022/08/19 04:43:54;;;;;;;22.02;17.17;;;14.30;99.90;;;;;;4942215;28;89592;-34
2022/08/19 04:46:20;;;;;;;19.25;15.15;;;14.40;99.90;;;;;;4936066;28;89750;-31
2022/08/19 04:48:46;;;;;;;25.75;18.92;;;14.50;99.90;;;;;;4933869;28;89371;-30
2022/08/19 04:51:13;;;;;;;18.73;15.93;;;14.60;99.90;;;;;;4942305;28;89223;-37
2022/08/19 04:53:40;;;;;;;17.58;14.02;;;14.60;99.90;;;;;;4944131;28;89852;-30
2022/08/19 04:56:09;;;;;;;20.55;16.55;;;14.60;99.90;;;;;;4941818;28;89592;-30
2022/08/19 04:58:35;;;;;;;19.65;15.38;;;14.60;99.90;;;;;;4941207;28;89930;-28
2022/08/19 05:01:00;;;;;;;22.40;17.60;;;14.70;99.90;;;;;;4941438;28;91287;-31
2022/08/19 05:03:26;;;;;;;20.58;17.60;;;14.70;99.90;;;;;;4940941;28;90598;-30
2022/08/19 05:05:52;;;;;;;24.20;18.67;;;14.80;99.90;;;;;;4941749;28;88711;-31
2022/08/19 05:08:20;;;;;;;21.55;16.85;;;14.80;99.90;;;;;;4941601;28;91074;-32
2022/08/19 05:10:51;;;;;;;26.08;17.52;;;14.90;99.90;;;;;;4941151;28;89985;-32
2022/08/19 05:13:18;;;;;;;21.77;17.98;;;15.00;99.90;;;;;;4940777;28;89737;-32
2022/08/19 05:15:52;;;;;;;28.17;19.00;;;15.10;99.90;;;;;;4941270;28;89157;-32
2022/08/19 05:23:57;;;;;;;23.90;18.80;;;15.20;99.90;;;;;;4941071;28;89590;-32
2022/08/19 05:26:25;;;;;;;26.27;18.48;;;15.20;99.90;;;;;;4940471;28;89051;-30
2022/08/19 05:28:51;;;;;;;;;;;15.30;99.90;;;;;;4941479;28;91617;-32
2022/08/19 05:31:16;;;;;;;20.98;17.08;;;15.30;99.90;;;;;;4943568;28;89613;-30
2022/08/19 05:33:42;;;;;;;22.33;18.13;;;15.40;99.90;;;;;;4941013;28;88894;-30
2022/08/19 05:36:07;;;;;;;21.80;17.02;;;15.50;99.90;;;;;;4940804;28;88807;-33
2022/08/19 05:38:35;;;;;;;22.83;17.30;;;15.50;99.90;;;;;;4941099;28;89941;-33
2022/08/19 05:41:11;;;;;;;23.47;18.30;;;15.60;99.90;;;;;;4941396;28;89790;-32
2022/08/19 05:43:37;;;;;;;21.60;16.83;;;15.70;99.90;;;;;;4941431;28;90003;-33
2022/08/19 05:46:05;;;;;;;24.38;18.27;;;15.80;99.90;;;;;;4937536;28;89783;-31
2022/08/19 05:48:32;;;;;;;22.00;17.63;;;15.90;99.90;;;;;;4931526;28;90317;-29
2022/08/19 05:50:59;;;;;;;19.45;16.13;;;16.00;99.90;;;;;;4939993;28;91288;-31
2022/08/19 05:53:25;;;;;;;17.58;15.57;;;16.10;99.90;;;;;;4940749;28;89252;-33
2022/08/19 05:55:51;;;;;;;18.42;15.77;;;16.10;99.90;;;;;;4941560;28;89647;-31
2022/08/19 05:58:17;;;;;;;19.45;16.15;;;16.20;99.90;;;;;;4940966;28;90311;-30
2022/08/19 06:00:44;;;;;;;18.90;15.63;;;16.30;99.90;;;;;;4940936;28;89468;-31
2022/08/19 06:03:09;;;;;;;21.08;15.90;;;16.40;99.90;;;;;;4941070;28;88697;-30
2022/08/19 06:05:35;;;;;;;22.83;17.40;;;16.40;99.90;;;;;;4940185;28;90102;-30
2022/08/19 06:08:01;;;;;;;18.42;15.10;;;16.50;99.90;;;;;;4941300;28;90145;-31
2022/08/19 06:10:27;;;;;;;24.13;16.05;;;16.50;99.90;;;;;;4940225;28;89628;-32
2022/08/19 06:12:54;;;;;;;21.52;15.55;;;16.60;99.90;;;;;;4940329;28;89544;-31
2022/08/19 06:15:19;;;;;;;20.30;14.48;;;16.70;99.90;;;;;;4940500;28;90528;-31
2022/08/19 06:17:45;;;;;;;17.88;14.90;;;16.80;99.90;;;;;;4941125;28;90332;-33
2022/08/19 06:20:14;;;;;;;20.85;16.92;;;16.80;99.90;;;;;;4941806;28;89526;-31
2022/08/19 06:22:45;;;;;;;18.38;15.10;;;16.90;99.90;;;;;;4940826;28;90043;-34
2022/08/19 06:25:12;;;;;;;18.70;15.50;;;17.00;99.90;;;;;;4940375;28;89194;-29
2022/08/19 06:27:38;;;;;;;18.40;14.38;;;17.00;99.90;;;;;;4948847;28;90181;-29
2022/08/19 06:30:05;;;;;;;21.08;15.30;;;17.10;99.90;;;;;;4947050;28;88904;-31
2022/08/19 06:32:31;;;;;;;23.38;15.80;;;17.10;99.90;;;;;;4940517;28;89920;-34
2022/08/19 06:34:56;;;;;;;18.15;16.00;;;17.20;99.90;;;;;;4940204;28;89521;-30
2022/08/19 06:37:22;;;;;;;19.58;14.85;;;17.20;99.90;;;;;;4940139;28;90662;-31
2022/08/19 06:39:48;;;;;;;18.25;14.35;;;17.30;99.90;;;;;;4942525;28;90963;-30
2022/08/19 06:42:18;;;;;;;16.00;12.40;;;17.40;99.90;;;;;;4940701;28;89622;-30
2022/08/19 06:44:47;;;;;;;14.43;12.65;;;17.50;99.90;;;;;;4940348;28;90002;-30
2022/08/19 06:47:16;;;;;;;20.55;12.82;;;17.60;99.90;;;;;;4926629;28;90266;-32
2022/08/19 06:49:42;;;;;;;15.68;11.88;;;17.70;99.90;;;;;;4944963;28;89856;-30
2022/08/19 06:52:11;;;;;;;13.65;12.05;;;17.80;99.90;;;;;;4940449;28;90018;-31
2022/08/19 06:54:37;;;;;;;13.20;11.35;;;17.90;99.90;;;;;;4941410;28;89152;-32
2022/08/19 06:57:03;;;;;;;15.63;11.55;;;18.10;99.90;;;;;;4944472;28;90264;-31
2022/08/19 06:59:31;;;;;;;11.85;10.65;;;18.30;99.90;;;;;;4950120;28;87864;-32
2022/08/19 07:01:57;;;;;;;17.83;13.93;;;18.40;99.90;;;;;;4949310;28;89197;-32
2022/08/19 07:04:26;;;;;;;12.40;10.70;;;18.60;99.90;;;;;;4940815;28;88945;-32
2022/08/19 07:07:01;;;;;;;14.18;12.05;;;18.80;99.90;;;;;;4939623;28;90400;-32
2022/08/19 07:09:27;;;;;;;15.88;14.05;;;19.00;99.90;;;;;;4939287;28;90009;-34
2022/08/19 07:11:54;;;;;;;17.92;12.65;;;19.20;99.90;;;;;;4939388;28;90882;-33
2022/08/19 07:14:24;;;;;;;14.55;13.07;;;19.50;99.90;;;;;;4928064;28;89275;-30
2022/08/19 07:16:51;;;;;;;14.13;11.90;;;19.70;99.90;;;;;;4938668;28;90682;-32
2022/08/19 07:19:18;;;;;;;12.60;11.40;;;19.90;99.90;;;;;;4939333;28;88657;-32
2022/08/19 07:21:44;;;;;;;13.18;11.77;;;20.10;99.90;;;;;;4939884;28;90134;-31
2022/08/19 07:24:09;;;;;;;13.25;11.05;;;20.30;99.90;;;;;;4939371;28;89057;-31
2022/08/19 07:26:41;;;;;;;13.75;11.13;;;20.30;99.90;;;;;;4938541;28;90766;-33
2022/08/19 07:29:07;;;;;;;14.00;12.38;;;20.50;99.90;;;;;;4938146;28;90614;-31
2022/08/19 07:31:36;;;;;;;15.23;10.38;;;20.50;99.90;;;;;;4938948;28;90530;-32
2022/08/19 07:34:08;;;;;;;14.82;12.35;;;20.70;99.90;;;;;;4940027;28;89859;-32
2022/08/19 07:36:36;;;;;;;12.98;11.75;;;20.80;99.90;;;;;;4939215;28;90805;-34
2022/08/19 07:39:18;;;;;;;12.60;11.35;;;21.00;99.90;;;;;;4939531;28;89712;-31
2022/08/19 07:41:44;;;;;;;11.68;10.40;;;21.10;99.90;;;;;;4934292;28;90040;-34
2022/08/19 07:44:12;;;;;;;12.50;10.38;;;21.10;99.90;;;;;;4941588;28;88534;-31
2022/08/19 07:46:43;;;;;;;12.77;11.20;;;21.20;99.90;;;;;;4930986;28;91052;-31
2022/08/19 07:49:14;;;;;;;12.45;10.35;;;21.40;99.90;;;;;;4934508;28;89595;-33
2022/08/19 07:51:40;;;;;;;20.17;11.48;;;21.50;99.90;;;;;;4938469;28;89910;-33
2022/08/19 07:54:05;;;;;;;13.40;10.93;;;21.70;99.90;;;;;;4938383;28;89412;-31
2022/08/19 07:56:31;;;;;;;12.18;10.88;;;21.80;99.90;;;;;;4938970;28;90210;-32
2022/08/19 07:58:57;;;;;;;14.82;10.68;;;21.90;99.90;;;;;;4939176;28;90133;-32
2022/08/19 08:01:25;;;;;;;12.65;9.98;;;22.00;99.90;;;;;;4938096;28;88901;-32
2022/08/19 08:09:26;;;;;;;10.77;9.65;;;22.40;99.90;;;;;;4939145;28;89646;-32
2022/08/19 08:11:56;;;;;;;14.63;10.35;;;22.60;99.90;;;;;;4938833;28;90182;-31
2022/08/19 08:14:28;;;;;;;9.98;8.75;;;22.80;99.90;;;;;;4941850;28;89483;-31
2022/08/19 08:16:55;;;;;;;14.30;11.32;;;23.00;99.90;;;;;;4948963;28;92633;-33
2022/08/19 08:19:23;;;;;;;13.73;10.88;;;23.20;99.90;;;;;;4955980;28;91104;-30
2022/08/19 08:21:49;;;;;;;13.27;10.63;;;23.40;99.90;;;;;;4955789;28;90223;-30
2022/08/19 08:24:16;;;;;;;14.40;10.63;;;23.50;99.90;;;;;;4944309;28;88200;-32
2022/08/19 08:26:43;;;;;;;11.13;9.40;;;23.50;99.90;;;;;;4941354;28;90272;-31
2022/08/19 08:29:10;;;;;;;10.27;9.10;;;23.60;99.90;;;;;;4942943;28;89970;-34
2022/08/19 08:31:36;;;;;;;9.52;8.70;;;23.80;99.90;;;;;;4942015;28;89802;-35
2022/08/19 08:34:01;;;;;;;12.60;9.38;;;23.90;99.90;;;;;;4943498;28;88918;-32
2022/08/19 08:36:27;;;;;;;11.27;10.10;;;24.00;99.90;;;;;;4942501;28;90210;-31
2022/08/19 08:38:52;;;;;;;11.90;10.00;;;24.10;99.90;;;;;;4942109;28;90347;-32
2022/08/19 08:41:33;;;;;;;10.93;8.93;;;24.20;99.90;;;;;;4941855;28;90083;-34
2022/08/19 08:43:59;;;;;;;11.45;10.23;;;24.20;99.90;;;;;;4943166;28;89159;-30
2022/08/19 08:46:57;;;;;;;11.40;10.25;;;24.30;99.90;;;;;;4934886;28;90258;-30
2022/08/19 08:49:52;;;;;;;9.38;8.55;;;24.50;99.90;;;;;;4937466;28;89341;-31
2022/08/19 08:52:23;;;;;;;10.85;8.65;;;24.60;99.90;;;;;;4941458;28;89602;-34
2022/08/19 08:54:51;;;;;;;9.95;8.02;;;24.60;99.90;;;;;;4942932;28;88974;-34
2022/08/19 08:57:59;;;;;;;12.77;10.15;;;24.70;99.90;;;;;;4955333;28;90071;-32
2022/08/19 09:00:30;;;;;;;;;;;24.90;99.90;;;;;;4929090;28;90029;-33
2022/08/19 09:02:57;;;;;;;9.40;8.40;;;24.90;99.90;;;;;;4943529;28;89533;-31
2022/08/19 09:05:27;;;;;;;12.10;8.70;;;24.90;99.90;;;;;;4942763;28;88045;-32
2022/08/19 09:07:58;;;;;;;9.95;9.05;;;25.00;99.90;;;;;;4942585;28;90012;-35
2022/08/19 09:10:33;;;;;;;10.13;9.20;;;25.00;99.90;;;;;;4941472;28;91078;-31
2022/08/19 09:13:12;;;;;;;11.63;9.55;;;25.00;99.90;;;;;;4950833;28;90754;-32
2022/08/19 09:15:44;;;;;;;10.30;9.18;;;25.10;99.90;;;;;;4942380;28;89329;-32
2022/08/19 09:18:10;;;;;;;9.60;8.52;;;25.10;99.90;;;;;;4942445;28;90870;-33
2022/08/19 09:20:36;;;;;;;7.35;6.65;;;25.10;99.90;;;;;;4942486;28;90966;-32
2022/08/19 09:23:02;;;;;;;8.63;7.80;;;25.20;99.90;;;;;;4941911;28;89795;-33
2022/08/19 09:25:27;;;;;;;8.88;8.00;;;25.30;99.90;;;;;;4940751;28;88633;-33
2022/08/19 09:27:56;;;;;;;7.95;7.00;;;25.40;99.90;;;;;;4940638;28;90578;-32
2022/08/19 09:30:27;;;;;;;8.98;6.60;;;25.60;99.90;;;;;;4949299;28;90515;-32
2022/08/19 09:32:54;;;;;;;7.55;6.78;;;25.80;99.90;;;;;;4941675;28;89965;-32
2022/08/19 09:35:22;;;;;;;10.52;7.40;;;25.80;99.90;;;;;;4941606;28;88931;-32
2022/08/19 09:37:47;;;;;;;;;;;25.80;99.90;;;;;;4948504;28;90223;-32
2022/08/19 09:40:13;;;;;;;11.95;7.43;;;25.70;99.90;;;;;;4947013;28;90408;-33
2022/08/19 09:42:38;;;;;;;11.57;9.48;;;25.80;99.90;;;;;;4944128;28;89254;-32
2022/08/19 09:45:04;;;;;;;11.80;8.98;;;25.90;99.90;;;;;;4942350;28;88307;-31
2022/08/19 09:47:30;;;;;;;11.02;10.02;;;26.00;99.90;;;;;;4927721;28;91719;-31
2022/08/19 09:49:57;;;;;;;8.85;8.05;;;26.10;99.90;;;;;;4941180;28;90837;-32
2022/08/19 09:52:23;;;;;;;9.18;7.22;;;26.10;99.90;;;;;;4941653;28;89634;-33
2022/08/19 09:54:52;;;;;;;7.75;6.72;;;26.20;99.90;;;;;;4941322;28;88573;-33
2022/08/19 09:57:18;;;;;;;9.95;8.15;;;26.40;99.90;;;;;;4940701;28;90188;-35
2022/08/19 09:59:44;;;;;;;8.88;8.00;;;26.30;99.90;;;;;;4940553;28;90716;-33
2022/08/19 10:02:10;;;;;;;6.60;6.00;;;26.30;99.90;;;;;;4940741;28;90540;-35
2022/08/19 10:07:21;;;;;;;7.15;6.47;;;26.50;99.90;;;;;;4940956;28;90381;-32
2022/08/19 10:09:47;;;;;;;6.18;5.55;;;26.50;99.90;;;;;;4941458;28;89267;-31
2022/08/19 10:12:15;;;;;;;6.07;5.47;;;26.70;99.90;;;;;;4941114;28;89587;-32
2022/08/19 10:14:40;;;;;;;;;;;26.80;99.90;;;;;;4942083;28;89693;-31
2022/08/19 10:17:06;;;;;;;9.63;6.28;;;26.80;99.90;;;;;;4941966;28;90080;-31
2022/08/19 10:19:35;;;;;;;8.05;4.38;;;26.90;99.90;;;;;;4941727;28;89697;-31
2022/08/19 10:22:06;;;;;;;7.18;6.47;;;27.00;99.90;;;;;;4941517;28;90005;-33
2022/08/19 10:24:33;;;;;;;5.40;5.00;;;26.90;99.90;;;;;;4941390;28;89225;-32
2022/08/19 10:27:00;;;;;;;6.67;5.97;;;26.80;99.90;;;;;;4940225;28;89734;-33
2022/08/19 10:29:29;;;;;;;6.25;5.72;;;26.80;99.90;;;;;;4941692;28;89761;-32
2022/08/19 10:31:58;;;;;;;7.07;6.47;;;26.80;99.90;;;;;;4940574;28;88384;-31
2022/08/19 10:34:24;;;;;;;7.35;5.75;;;26.90;99.90;;;;;;4940678;28;89300;-34
2022/08/19 10:36:50;;;;;;;6.57;5.97;;;26.90;99.90;;;;;;4939901;28;90124;-32
2022/08/19 10:39:16;;;;;;;7.00;6.40;;;26.90;99.90;;;;;;4940290;28;89878;-32
2022/08/19 10:41:43;;;;;;;10.93;8.05;;;26.90;99.90;;;;;;4954884;28;89397;-32
2022/08/19 10:44:11;;;;;;;8.53;6.47;;;26.90;99.90;;;;;;4955156;28;87650;-34
2022/08/19 10:46:41;;;;;;;7.47;6.78;;;26.90;99.90;;;;;;4946717;28;90438;-33
2022/08/19 10:49:09;;;;;;;7.22;6.53;;;26.90;99.90;;;;;;4939107;28;91095;-32
2022/08/19 10:54:20;;;;;;;10.35;9.32;;;26.90;99.90;;;;;;4940580;28;89373;-34
2022/08/19 10:56:52;;;;;;;12.88;7.97;;;26.90;99.90;;;;;;4939871;28;91170;-31
2022/08/19 10:59:27;;;;;;;10.77;7.35;;;26.90;99.90;;;;;;4940774;28;88681;-32
2022/08/19 11:01:54;;;;;;;6.55;5.78;;;27.00;99.90;;;;;;4940590;28;91104;-32
2022/08/19 11:04:22;;;;;;;12.57;6.77;;;27.10;99.90;;;;;;4940818;28;88632;-30
2022/08/19 11:06:48;;;;;;;8.13;7.30;;;27.20;99.90;;;;;;4940904;28;90044;-33
2022/08/19 11:09:16;;;;;;;7.45;6.45;;;27.30;99.90;;;;;;4940630;28;88983;-32
2022/08/19 11:11:42;;;;;;;8.68;7.78;;;27.30;99.90;;;;;;4940196;28;89429;-32
2022/08/19 11:14:10;;;;;;;8.55;6.88;;;27.30;99.90;;;;;;4939918;28;89895;-34
2022/08/19 11:16:38;;;;;;;10.55;7.78;;;27.30;99.90;;;;;;4940503;28;89937;-32
2022/08/19 11:19:04;;;;;;;10.43;8.13;;;27.40;99.90;;;;;;4940925;28;89825;-32
2022/08/19 11:21:33;;;;;;;7.70;7.07;;;27.40;99.90;;;;;;4939664;28;90598;-34
2022/08/19 11:24:06;;;;;;;8.38;7.45;;;27.50;99.90;;;;;;4939897;28;88431;-32
2022/08/19 11:26:32;;;;;;;8.43;7.60;;;27.50;99.90;;;;;;4939960;28;89757;-32
2022/08/19 11:28:59;;;;;;;9.10;7.60;;;27.50;99.90;;;;;;4940239;28;90058;-35
2022/08/19 11:31:33;;;;;;;7.67;7.00;;;27.60;99.90;;;;;;4940050;28;89756;-33
2022/08/19 11:34:04;;;;;;;8.05;7.35;;;27.50;99.90;;;;;;4940468;28;89826;-33
2022/08/19 11:36:32;;;;;;;8.60;7.80;;;27.40;99.90;;;;;;4939551;28;89844;-31
2022/08/19 11:38:58;;;;;;;9.10;8.30;;;27.30;99.90;;;;;;4939513;28;90621;-32
2022/08/19 11:41:24;;;;;;;8.32;7.53;;;27.30;99.90;;;;;;4939835;28;90284;-33
2022/08/19 11:43:54;;;;;;;9.15;8.25;;;27.30;99.90;;;;;;4940641;28;89147;-32
2022/08/19 11:46:22;;;;;;;9.55;7.20;;;27.20;99.90;;;;;;4934988;28;90795;-32
2022/08/19 11:48:50;;;;;;;8.10;7.35;;;27.00;99.90;;;;;;4932559;28;90709;-33
2022/08/19 11:51:18;;;;;;;;;;;26.90;99.90;;;;;;4939621;28;89406;-32
2022/08/19 11:53:44;;;;;;;7.82;6.55;;;27.00;99.90;;;;;;4941183;28;89338;-33
2022/08/19 11:56:10;;;;;;;8.15;7.25;;;27.20;99.90;;;;;;4940267;28;90172;-33
2022/08/19 11:58:36;;;;;;;8.77;7.90;;;27.30;99.90;;;;;;4939752;28;90205;-33
2022/08/19 12:01:07;;;;;;;9.15;8.32;;;27.40;99.90;;;;;;4939437;28;89767;-31
2022/08/19 12:03:33;;;;;;;10.88;8.10;;;27.50;99.90;;;;;;4939239;28;88953;-33
2022/08/19 12:06:02;;;;;;;8.80;8.00;;;27.20;99.90;;;;;;4939740;28;90994;-33
2022/08/19 12:08:28;;;;;;;8.13;7.20;;;26.90;99.90;;;;;;4939291;28;89297;-33
2022/08/19 12:10:54;;;;;;;8.23;7.45;;;26.70;99.90;;;;;;4939796;28;88839;-32
2022/08/19 12:13:19;;;;;;;7.55;6.90;;;26.80;99.90;;;;;;4940395;28;90473;-32
2022/08/19 12:15:47;;;;;;;14.32;7.65;;;26.90;99.90;;;;;;4939819;28;90489;-33
2022/08/19 12:18:13;;;;;;;8.40;6.63;;;27.00;99.90;;;;;;4938752;28;89609;-34
2022/08/19 12:20:41;;;;;;;7.05;6.45;;;27.10;99.90;;;;;;4940062;28;89751;-32
2022/08/19 12:23:09;;;;;;;7.22;6.53;;;27.20;99.90;;;;;;4939891;28;87961;-35
2022/08/19 12:25:35;;;;;;;;;;;27.30;99.90;;;;;;4977252;23;90674;-33
2022/08/19 12:28:01;;;;;;;7.35;6.75;;;27.50;99.90;;;;;;4940368;28;90678;-34
2022/08/19 12:30:26;;;;;;;8.15;7.45;;;27.50;99.90;;;;;;4939487;28;90519;-32
2022/08/19 12:32:52;;;;;;;10.15;9.15;;;27.60;99.90;;;;;;4939558;28;87892;-32
2022/08/19 12:35:19;;;;;;;7.20;6.60;;;27.60;99.90;;;;;;4940487;28;90140;-33
2022/08/19 12:37:47;;;;;;;6.75;6.25;;;27.50;99.90;;;;;;4940049;28;89877;-32
2022/08/19 12:40:14;;;;;;;8.32;7.53;;;27.60;99.90;;;;;;4938449;28;89538;-34
2022/08/19 12:42:41;;;;;;;11.30;7.55;;;27.50;99.90;;;;;;4939531;28;89624;-32
2022/08/19 12:45:09;;;;;;;7.10;6.60;;;27.50;99.90;;;;;;4940421;28;89579;-34
2022/08/19 12:47:35;;;;;;;7.57;6.88;;;27.50;99.90;;;;;;4925602;28;90732;-33
2022/08/19 12:50:01;;;;;;;9.45;7.88;;;27.50;99.90;;;;;;4939653;28;89634;-34
2022/08/19 12:52:27;;;;;;;7.97;7.15;;;27.40;99.90;;;;;;4938769;28;89248;-35
2022/08/19 12:54:55;;;;;;;8.38;7.65;;;27.40;99.90;;;;;;4939468;28;90422;-33
2022/08/19 12:57:22;;;;;;;;;;;27.40;99.90;;;;;;4939369;28;89630;-32
2022/08/19 12:59:51;;;;;;;7.07;6.47;;;27.40;99.90;;;;;;4941736;28;90109;-35
2022/08/19 13:02:17;;;;;;;7.07;6.43;;;27.50;99.90;;;;;;4943475;28;90216;-32